createdAt,value
2022-09-09T00:01:25.999Z,96942.09
2022-09-09T00:04:03.962Z,96933.81
2022-09-09T00:06:39.032Z,96929.97
2022-09-09T00:09:13.739Z,96923.72
2022-09-09T00:12:04.470Z,96924.94
2022-09-09T00:14:43.896Z,96930.53
2022-09-09T00:17:36.345Z,96920.94
2022-09-09T00:20:13.181Z,96922.97
2022-09-09T00:22:54.723Z,96929.69
2022-09-09T00:25:43.370Z,96921.56
2022-09-09T00:28:19.626Z,96922.00
2022-09-09T00:30:50.269Z,96914.91
2022-09-09T00:34:38.612Z,96917.66
2022-09-09T00:37:05.651Z,96910.94
2022-09-09T00:39:40.227Z,96910.81
2022-09-09T00:42:31.161Z,96916.72
2022-09-09T00:45:15.196Z,96919.81
2022-09-09T00:47:47.001Z,96922.56
2022-09-09T00:50:44.720Z,96919.44
2022-09-09T00:53:32.181Z,96918.38
2022-09-09T00:56:21.074Z,96914.16
2022-09-09T00:59:20.923Z,96918.22
2022-09-09T01:06:15.710Z,96937.25
2022-09-09T01:09:00.551Z,96931.28
2022-09-09T01:12:12.464Z,96932.22
2022-09-09T01:14:38.965Z,96936.97
2022-09-09T01:20:14.148Z,96943.97
2022-09-09T01:23:09.121Z,96932.16
2022-09-09T01:25:44.814Z,96924.31
2022-09-09T01:28:17.050Z,96926.44
2022-09-09T01:30:43.909Z,96918.84
2022-09-09T01:33:18.912Z,96925.38
2022-09-09T01:35:48.147Z,96929.38
2022-09-09T01:38:16.209Z,96932.78
2022-09-09T01:40:42.841Z,96923.47
2022-09-09T01:43:10.191Z,96928.53
2022-09-09T01:45:37.674Z,96930.91
2022-09-09T01:48:04.487Z,96929.66
2022-09-09T01:50:31.013Z,96928.91
2022-09-09T01:53:05.679Z,96913.22
2022-09-09T01:55:38.532Z,96919.72
2022-09-09T01:58:23.107Z,96912.31
2022-09-09T02:01:16.530Z,96917.81
2022-09-09T02:03:48.124Z,96922.59
2022-09-09T02:06:38.683Z,96931.09
2022-09-09T02:09:13.163Z,96925.72
2022-09-09T02:11:41.034Z,96932.28
2022-09-09T02:14:38.719Z,96934.63
2022-09-09T02:17:11.855Z,96937.75
2022-09-09T02:23:13.839Z,96951.81
2022-09-09T02:25:42.614Z,96947.94
2022-09-09T02:28:11.564Z,96952.88
2022-09-09T02:30:40.756Z,96946.28
2022-09-09T02:33:08.987Z,96945.78
2022-09-09T02:35:38.607Z,96945.69
2022-09-09T02:38:10.465Z,96945.94
2022-09-09T02:40:37.141Z,96940.66
2022-09-09T02:43:04.045Z,96934.66
2022-09-09T02:45:43.230Z,96937.94
2022-09-09T02:48:24.850Z,96937.19
2022-09-09T02:51:18.020Z,96942.97
2022-09-09T02:53:52.963Z,96946.22
2022-09-09T02:56:23.035Z,96941.78
2022-09-09T02:58:52.082Z,96945.03
2022-09-09T03:01:19.046Z,96937.84
2022-09-09T03:03:47.461Z,96941.09
2022-09-09T03:06:15.871Z,96935.81
2022-09-09T03:08:49.261Z,96932.22
2022-09-09T03:11:17.566Z,96935.72
2022-09-09T03:13:44.613Z,96939.19
2022-09-09T03:16:11.105Z,96937.84
2022-09-09T03:18:37.666Z,96933.56
2022-09-09T03:21:04.226Z,96934.06
2022-09-09T03:23:30.730Z,96925.63
2022-09-09T03:25:58.097Z,96926.84
2022-09-09T03:28:26.162Z,96926.09
2022-09-09T03:30:52.917Z,96919.53
2022-09-09T03:33:19.483Z,96922.88
2022-09-09T03:35:51.656Z,96913.16
2022-09-09T03:38:18.270Z,96911.59
2022-09-09T03:40:52.772Z,96915.06
2022-09-09T03:43:19.298Z,96920.13
2022-09-09T03:45:49.074Z,96919.03
2022-09-09T03:48:16.521Z,96918.31
2022-09-09T03:50:51.971Z,96914.09
2022-09-09T03:53:20.490Z,96917.13
2022-09-09T03:55:50.540Z,96908.00
2022-09-09T03:58:19.270Z,96901.16
2022-09-09T04:00:59.998Z,96893.25
2022-09-09T04:03:28.343Z,96889.03
2022-09-09T04:06:00.777Z,96887.47
2022-09-09T04:08:30.730Z,96890.72
2022-09-09T04:11:02.391Z,96887.81
2022-09-09T04:13:29.094Z,96883.03
2022-09-09T04:15:58.166Z,96885.69
2022-09-09T04:18:26.118Z,96877.97
2022-09-09T04:21:07.359Z,96876.81
2022-09-09T04:23:39.302Z,96875.09
2022-09-09T04:26:08.449Z,96883.63
2022-09-09T04:29:30.418Z,96876.16
2022-09-09T04:32:06.379Z,96874.94
2022-09-09T04:34:34.097Z,96872.56
2022-09-09T04:37:01.404Z,96881.91
2022-09-09T04:39:27.882Z,96880.09
2022-09-09T04:41:54.405Z,96886.38
2022-09-09T04:44:21.324Z,96890.91
2022-09-09T04:47:27.062Z,96892.00
2022-09-09T04:49:55.429Z,96880.69
2022-09-09T04:52:22.030Z,96875.50
2022-09-09T04:55:01.740Z,96893.69
2022-09-09T04:57:28.226Z,96883.19
2022-09-09T04:59:54.744Z,96892.81
2022-09-09T05:02:21.351Z,96899.75
2022-09-09T05:04:47.910Z,96895.91
2022-09-09T05:07:15.682Z,96896.50
2022-09-09T05:09:44.888Z,96900.94
2022-09-09T05:12:12.039Z,96902.03
2022-09-09T05:14:38.558Z,96915.50
2022-09-09T05:17:05.718Z,96919.34
2022-09-09T05:19:32.224Z,96907.34
2022-09-09T05:30:20.973Z,96893.75
2022-09-09T05:32:49.870Z,96893.72
2022-09-09T05:43:31.522Z,96896.38
2022-09-09T05:51:05.325Z,96916.03
2022-09-09T05:54:24.923Z,96910.13
2022-09-09T05:56:57.282Z,96912.31
2022-09-09T05:59:54.212Z,96908.84
2022-09-09T06:02:21.110Z,96898.59
2022-09-09T06:05:05.051Z,96892.66
2022-09-09T06:07:31.773Z,96888.72
2022-09-09T06:10:00.032Z,96897.66
2022-09-09T06:12:27.121Z,96897.00
2022-09-09T06:14:53.647Z,96900.22
2022-09-09T06:17:20.413Z,96906.72
2022-09-09T06:19:47.375Z,96912.91
2022-09-09T06:22:13.940Z,96912.19
2022-09-09T06:24:40.437Z,96914.19
2022-09-09T06:27:06.879Z,96914.78
2022-09-09T06:29:33.503Z,96918.13
2022-09-09T06:32:00.141Z,96920.75
2022-09-09T06:34:26.781Z,96926.34
2022-09-09T06:36:53.279Z,96920.91
2022-09-09T06:39:19.722Z,96923.97
2022-09-09T06:41:46.278Z,96924.81
2022-09-09T06:44:12.887Z,96921.97
2022-09-09T06:46:40.708Z,96920.75
2022-09-09T06:49:08.736Z,96919.94
2022-09-09T06:51:37.488Z,96914.56
2022-09-09T06:54:05.302Z,96908.59
2022-09-09T06:56:36.925Z,96908.03
2022-09-09T06:59:08.813Z,96906.50
2022-09-09T07:01:37.892Z,96915.00
2022-09-09T07:04:08.669Z,96914.59
2022-09-09T07:06:38.086Z,96927.44
2022-09-09T07:09:10.293Z,96930.38
2022-09-09T07:11:44.876Z,96925.59
2022-09-09T07:14:15.349Z,96926.75
2022-09-09T07:16:43.349Z,96924.63
2022-09-09T07:19:10.770Z,96932.03
2022-09-09T07:21:37.372Z,96926.59
2022-09-09T07:24:05.269Z,96930.22
2022-09-09T07:26:31.994Z,96941.97
2022-09-09T07:28:58.743Z,96940.44
2022-09-09T07:31:33.653Z,96948.94
2022-09-09T07:34:01.379Z,96943.19
2022-09-09T07:36:33.772Z,96941.81
2022-09-09T07:39:10.140Z,96940.84
2022-09-09T07:41:42.469Z,96933.03
2022-09-09T07:44:11.880Z,96931.06
2022-09-09T07:46:43.096Z,96929.41
2022-09-09T07:49:10.962Z,96927.44
2022-09-09T07:51:42.847Z,96921.44
2022-09-09T07:54:12.184Z,96921.66
2022-09-09T07:56:40.495Z,96922.50
2022-09-09T07:59:16.027Z,96927.91
2022-09-09T08:01:49.022Z,96936.38
2022-09-09T08:04:18.412Z,96940.19
2022-09-09T08:06:57.255Z,96946.00
2022-09-09T08:09:29.655Z,96956.81
2022-09-09T08:11:59.233Z,96951.34
2022-09-09T08:14:28.736Z,96960.00
2022-09-09T08:16:55.557Z,96960.41
2022-09-09T08:19:22.300Z,96966.69
2022-09-09T08:21:49.985Z,96970.28
2022-09-09T08:24:16.707Z,96970.47
2022-09-09T08:26:45.707Z,96964.06
2022-09-09T08:29:14.839Z,96966.66
2022-09-09T08:31:47.885Z,96968.50
2022-09-09T08:42:36.304Z,96972.31
2022-09-09T08:49:23.332Z,96983.28
2022-09-09T08:51:50.937Z,96993.53
2022-09-09T08:57:53.777Z,96995.09
2022-09-09T09:00:20.827Z,96997.66
2022-09-09T09:03:16.517Z,97005.09
2022-09-09T09:05:50.531Z,97010.16
2022-09-09T09:08:44.876Z,97009.44
2022-09-09T09:11:11.466Z,97012.03
2022-09-09T09:13:54.916Z,97019.84
2022-09-09T09:16:33.336Z,97021.38
2022-09-09T09:19:01.194Z,97020.94
2022-09-09T09:22:11.217Z,97028.13
2022-09-09T09:24:57.291Z,97027.69
2022-09-09T09:27:36.316Z,97026.22
2022-09-09T09:30:29.548Z,97025.06
2022-09-09T09:33:18.144Z,97036.50
2022-09-09T09:35:46.226Z,97040.31
2022-09-09T09:41:10.544Z,97040.53
2022-09-09T09:43:42.805Z,97043.97
2022-09-09T09:46:24.702Z,97038.66
2022-09-09T09:49:06.499Z,97044.72
2022-09-09T09:51:34.858Z,97055.00
2022-09-09T09:54:19.839Z,97049.97
2022-09-09T09:56:47.302Z,97046.06
2022-09-09T09:59:39.238Z,97050.16
2022-09-09T10:02:22.127Z,97056.78
2022-09-09T10:04:48.787Z,97055.91
2022-09-09T10:07:21.367Z,97050.72
2022-09-09T10:09:58.782Z,97040.97
2022-09-09T10:12:47.673Z,97048.34
2022-09-09T10:15:43.817Z,97063.63
2022-09-09T10:18:37.362Z,97061.84
2022-09-09T10:21:44.617Z,97058.41
2022-09-09T10:24:11.126Z,97050.72
2022-09-09T10:26:56.390Z,97053.63
2022-09-09T10:29:22.958Z,97044.88
2022-09-09T10:32:34.127Z,97046.81
2022-09-09T10:35:25.264Z,97043.97
2022-09-09T10:37:51.709Z,97047.41
2022-09-09T10:40:45.429Z,97047.31
2022-09-09T10:43:14.807Z,97042.34
2022-09-09T10:46:01.592Z,97044.72
2022-09-09T10:48:51.153Z,97043.47
2022-09-09T10:51:51.573Z,97045.31
2022-09-09T10:54:47.537Z,97034.31
2022-09-09T10:57:29.624Z,97029.16
2022-09-09T11:00:05.562Z,97026.13
2022-09-09T11:02:34.372Z,97032.03
2022-09-09T11:05:19.302Z,97037.28
2022-09-09T11:07:57.110Z,97042.00
2022-09-09T11:10:35.450Z,97045.22
2022-09-09T11:13:09.976Z,97051.22
2022-09-09T11:15:42.711Z,97045.72
2022-09-09T11:18:16.422Z,97047.56
2022-09-09T11:20:45.678Z,97054.25
2022-09-09T11:23:22.043Z,97050.56
2022-09-09T11:25:58.979Z,97046.47
2022-09-09T11:28:53.210Z,97049.22
2022-09-09T11:31:38.113Z,97040.78
2022-09-09T11:34:42.165Z,97045.75
2022-09-09T11:37:08.805Z,97055.44
2022-09-09T11:39:42.966Z,97045.91
2022-09-09T11:42:29.765Z,97044.13
2022-09-09T11:44:57.755Z,97044.53
2022-09-09T11:47:32.318Z,97038.38
2022-09-09T11:50:32.778Z,97035.69
2022-09-09T11:53:25.713Z,97032.19
2022-09-09T11:56:11.929Z,97041.38
2022-09-09T11:58:43.763Z,97040.91
2022-09-09T12:01:28.223Z,97042.72
2022-09-09T12:04:23.304Z,97036.56
2022-09-09T12:07:39.253Z,97040.69
2022-09-09T12:10:23.655Z,97036.13
2022-09-09T12:12:50.175Z,97032.81
2022-09-09T12:15:16.594Z,97041.00
2022-09-09T12:17:46.096Z,97046.75
2022-09-09T12:20:35.011Z,97040.41
2022-09-09T12:23:36.819Z,97024.91
2022-09-09T12:26:10.752Z,97018.72
2022-09-09T12:28:58.203Z,97018.84
2022-09-09T12:31:52.188Z,97019.94
2022-09-09T12:34:40.838Z,97019.72
2022-09-09T12:37:32.642Z,97020.44
2022-09-09T12:40:20.358Z,97018.22
2022-09-09T12:42:46.908Z,97019.50
2022-09-09T12:45:21.656Z,97023.47
2022-09-09T12:48:20.266Z,97023.94
2022-09-09T12:50:50.809Z,97020.56
2022-09-09T12:53:27.634Z,97037.53
2022-09-09T12:55:59.692Z,97029.78
2022-09-09T12:58:29.292Z,97017.16
2022-09-09T13:00:58.352Z,97017.31
2022-09-09T13:03:26.015Z,97026.53
2022-09-09T13:05:54.292Z,97020.94
2022-09-09T13:08:21.523Z,97023.31
2022-09-09T13:11:04.111Z,97021.66
2022-09-09T13:13:39.494Z,97009.78
2022-09-09T13:16:18.278Z,97011.50
2022-09-09T13:18:46.134Z,97018.97
2022-09-09T13:21:12.949Z,97016.13
2022-09-09T13:23:40.115Z,97017.16
2022-09-09T13:26:27.496Z,97018.16
2022-09-09T13:28:55.102Z,97008.88
2022-09-09T13:31:29.730Z,97008.06
2022-09-09T13:33:56.979Z,97006.19
2022-09-09T13:36:32.438Z,97012.72
2022-09-09T13:39:04.331Z,97007.72
2022-09-09T13:41:34.491Z,97000.44
2022-09-09T13:44:02.351Z,97001.09
2022-09-09T13:46:36.321Z,96998.16
2022-09-09T13:49:22.973Z,97001.38
2022-09-09T13:52:03.527Z,96999.63
2022-09-09T13:54:31.755Z,96995.69
2022-09-09T13:56:58.253Z,96991.16
2022-09-09T13:59:30.641Z,96985.56
2022-09-09T14:02:09.526Z,96984.66
2022-09-09T14:04:36.133Z,96982.91
2022-09-09T14:07:03.287Z,96975.66
2022-09-09T14:09:29.856Z,96973.66
2022-09-09T14:11:56.333Z,96965.00
2022-09-09T14:14:22.801Z,96973.22
2022-09-09T14:16:49.266Z,96970.72
2022-09-09T14:19:15.737Z,96963.22
2022-09-09T14:21:42.289Z,96964.09
2022-09-09T14:24:08.742Z,96974.22
2022-09-09T14:26:35.267Z,96970.03
2022-09-09T14:29:02.610Z,96972.88
2022-09-09T14:31:29.576Z,96970.88
2022-09-09T14:33:56.138Z,96964.69
2022-09-09T14:36:22.659Z,96962.41
2022-09-09T14:38:49.269Z,96965.03
2022-09-09T14:41:18.541Z,96965.88
2022-09-09T14:43:46.057Z,96964.31
2022-09-09T14:46:18.022Z,96967.66
2022-09-09T14:48:46.155Z,96965.16
2022-09-09T14:51:25.988Z,96962.56
2022-09-09T14:53:54.385Z,96964.72
2022-09-09T14:56:24.094Z,96962.00
2022-09-09T14:58:51.940Z,96956.16
2022-09-09T15:01:21.450Z,96963.72
2022-09-09T15:03:53.720Z,96952.84
2022-09-09T15:06:22.221Z,96956.88
2022-09-09T15:08:50.630Z,96952.69
2022-09-09T15:11:17.304Z,96952.72
2022-09-09T15:13:44.596Z,96953.53
2022-09-09T15:16:13.775Z,96949.03
2022-09-09T15:18:46.416Z,96946.63
2022-09-09T15:21:19.997Z,96939.13
2022-09-09T15:23:48.112Z,96946.97
2022-09-09T15:26:16.108Z,96940.78
2022-09-09T15:28:44.573Z,96940.75
2022-09-09T15:31:18.594Z,96940.25
2022-09-09T15:34:01.620Z,96937.03
2022-09-09T15:36:49.763Z,96931.84
2022-09-09T15:39:18.071Z,96934.41
2022-09-09T15:41:49.165Z,96937.31
2022-09-09T15:44:16.645Z,96930.50
2022-09-09T15:46:50.164Z,96930.06
2022-09-09T15:49:19.338Z,96935.78
2022-09-09T15:51:48.299Z,96919.72
2022-09-09T15:54:21.773Z,96912.72
2022-09-09T15:56:52.646Z,96910.47
2022-09-09T15:59:19.404Z,96905.34
2022-09-09T16:01:45.987Z,96904.75
2022-09-09T16:04:12.958Z,96901.81
2022-09-09T16:06:40.176Z,96906.69
2022-09-09T16:09:08.151Z,96912.28
2022-09-09T16:11:37.826Z,96909.25
2022-09-09T16:14:05.212Z,96911.25
2022-09-09T16:16:32.181Z,96925.94
2022-09-09T16:19:01.169Z,96931.63
2022-09-09T16:21:36.082Z,96932.84
2022-09-09T16:24:03.817Z,96934.13
2022-09-09T16:26:32.320Z,96935.59
2022-09-09T16:28:59.904Z,96933.16
2022-09-09T16:31:28.262Z,96933.25
2022-09-09T16:33:54.925Z,96932.41
2022-09-09T16:36:31.283Z,96941.53
2022-09-09T16:39:03.645Z,96937.13
2022-09-09T16:41:31.060Z,96937.88
2022-09-09T16:44:00.152Z,96939.63
2022-09-09T16:46:28.759Z,96945.41
2022-09-09T16:48:57.609Z,96941.66
2022-09-09T16:51:27.666Z,96940.44
2022-09-09T16:53:55.189Z,96936.25
2022-09-09T16:56:27.577Z,96941.81
2022-09-09T16:58:56.636Z,96933.72
2022-09-09T17:01:28.604Z,96938.41
2022-09-09T17:04:01.301Z,96941.13
2022-09-09T17:06:33.517Z,96945.94
2022-09-09T17:09:02.532Z,96942.47
2022-09-09T17:11:30.286Z,96948.66
2022-09-09T17:13:59.139Z,96948.00
2022-09-09T17:16:28.554Z,96939.63
2022-09-09T17:18:56.516Z,96940.50
2022-09-09T17:21:25.259Z,96937.88
2022-09-09T17:23:52.499Z,96932.97
2022-09-09T17:26:22.181Z,96929.66
2022-09-09T17:28:49.112Z,96932.56
2022-09-09T17:31:18.336Z,96929.25
2022-09-09T17:33:50.889Z,96925.28
2022-09-09T17:36:29.261Z,96929.19
2022-09-09T17:38:56.427Z,96925.47
2022-09-09T17:41:29.156Z,96926.69
2022-09-09T17:43:56.121Z,96921.25
2022-09-09T17:46:28.463Z,96914.97
2022-09-09T17:49:00.438Z,96911.63
2022-09-09T17:51:30.671Z,96908.41
2022-09-09T17:54:00.856Z,96903.63
2022-09-09T17:56:31.613Z,96896.81
2022-09-09T17:59:00.108Z,96900.63
2022-09-09T18:01:29.807Z,96919.34
2022-09-09T18:03:57.479Z,96918.66
2022-09-09T18:06:28.053Z,96923.25
2022-09-09T18:08:57.062Z,96929.38
2022-09-09T18:11:26.098Z,96929.66
2022-09-09T18:13:55.224Z,96940.72
2022-09-09T18:16:22.687Z,96943.06
2022-09-09T18:18:52.735Z,96936.66
2022-09-09T18:21:21.624Z,96940.00
2022-09-09T18:23:50.777Z,96949.34
2022-09-09T18:26:24.225Z,96952.84
2022-09-09T18:28:53.194Z,96953.84
2022-09-09T18:31:23.525Z,96948.25
2022-09-09T18:33:53.173Z,96954.38
2022-09-09T18:36:21.992Z,96964.44
2022-09-09T18:38:49.657Z,96970.00
2022-09-09T18:41:21.562Z,96971.69
2022-09-09T18:43:50.096Z,96983.94
2022-09-09T18:46:18.381Z,96979.63
2022-09-09T18:48:46.836Z,96981.84
2022-09-09T18:51:19.214Z,96982.25
2022-09-09T18:53:57.647Z,96976.53
2022-09-09T18:56:24.786Z,96993.69
2022-09-09T18:58:56.521Z,96992.16
2022-09-09T19:01:23.694Z,96989.50
2022-09-09T19:03:51.307Z,96991.59
2022-09-09T19:06:21.910Z,96996.91
2022-09-09T19:08:52.289Z,97004.69
2022-09-09T19:11:24.112Z,97004.69
2022-09-09T19:14:02.369Z,97011.53
2022-09-09T19:16:31.648Z,97012.63
2022-09-09T19:19:00.797Z,97020.56
2022-09-09T19:21:30.585Z,97013.72
2022-09-09T19:24:09.090Z,97019.41
2022-09-09T19:26:43.915Z,97025.25
2022-09-09T19:29:16.751Z,97024.53
2022-09-09T19:32:01.945Z,97027.31
2022-09-09T19:34:34.711Z,97019.66
2022-09-09T19:37:01.293Z,97019.91
2022-09-09T19:39:28.279Z,97023.78
2022-09-09T19:41:55.257Z,97019.44
2022-09-09T19:44:22.608Z,97024.75
2022-09-09T19:46:49.941Z,97036.34
2022-09-09T19:49:17.761Z,97017.06
2022-09-09T19:51:44.607Z,97020.16
2022-09-09T19:54:13.998Z,97026.56
2022-09-09T19:56:42.625Z,97022.88
2022-09-09T19:59:11.114Z,97026.53
2022-09-09T20:01:40.997Z,97025.22
2022-09-09T20:04:08.772Z,97028.97
2022-09-09T20:06:37.931Z,97022.81
2022-09-09T20:09:06.287Z,97033.69
2022-09-09T20:11:33.826Z,97043.69
2022-09-09T20:14:00.392Z,97046.19
2022-09-09T20:16:31.152Z,97050.53
2022-09-09T20:19:03.735Z,97050.13
2022-09-09T20:21:36.595Z,97051.25
2022-09-09T20:24:08.952Z,97046.72
2022-09-09T20:26:37.548Z,97059.47
2022-09-09T20:29:07.753Z,97056.47
2022-09-09T20:31:36.678Z,97063.69
2022-09-09T20:34:06.887Z,97065.88
2022-09-09T20:36:35.466Z,97063.31
2022-09-09T20:39:19.913Z,97057.56
2022-09-09T20:41:47.078Z,97058.75
2022-09-09T20:44:20.014Z,97054.78
2022-09-09T20:46:48.451Z,97064.97
2022-09-09T20:49:17.418Z,97080.09
2022-09-09T20:51:44.475Z,97144.03
2022-09-09T20:54:14.492Z,97138.38
2022-09-09T20:56:42.318Z,97119.75
2022-09-09T20:59:12.318Z,97131.63
2022-09-09T21:01:39.132Z,97119.69
2022-09-09T21:04:06.821Z,97118.09
2022-09-09T21:06:33.300Z,97111.59
2022-09-09T21:08:59.824Z,97096.53
2022-09-09T21:11:26.385Z,97091.13
2022-09-09T21:13:53.321Z,97092.84
2022-09-09T21:16:21.261Z,97090.97
2022-09-09T21:18:49.755Z,97081.38
2022-09-09T21:21:21.147Z,97082.34
2022-09-09T21:23:49.390Z,97084.28
2022-09-09T21:26:18.174Z,97074.09
2022-09-09T21:28:44.610Z,97072.41
2022-09-09T21:31:16.307Z,97069.03
2022-09-09T21:33:43.056Z,97066.84
2022-09-09T21:36:12.413Z,97072.13
2022-09-09T21:38:42.249Z,97069.47
2022-09-09T21:41:13.013Z,97074.91
2022-09-09T21:43:41.776Z,97080.66
2022-09-09T21:46:10.229Z,97082.00
2022-09-09T21:48:37.004Z,97077.22
2022-09-09T21:51:06.327Z,97071.78
2022-09-09T21:53:33.386Z,97071.59
2022-09-09T21:56:09.467Z,97073.63
2022-09-09T21:58:36.603Z,97076.59
2022-09-09T22:01:10.328Z,97075.66
2022-09-09T22:03:39.043Z,97079.75
2022-09-09T22:06:07.282Z,97077.84
2022-09-09T22:08:34.031Z,97078.00
2022-09-09T22:11:31.337Z,97082.94
2022-09-09T22:13:58.062Z,97077.53
2022-09-09T22:16:28.365Z,97069.81
2022-09-09T22:18:57.029Z,97063.44
2022-09-09T22:21:24.902Z,97065.00
2022-09-09T22:23:56.771Z,97067.97
2022-09-09T22:26:24.501Z,97063.75
2022-09-09T22:28:53.740Z,97055.34
2022-09-09T22:31:22.721Z,97059.56
2022-09-09T22:33:49.474Z,97061.00
2022-09-09T22:36:16.086Z,97054.63
2022-09-09T22:38:45.035Z,97059.53
2022-09-09T22:41:11.580Z,97061.44
2022-09-09T22:43:38.019Z,97069.56
2022-09-09T22:46:04.580Z,97062.72
2022-09-09T22:48:35.402Z,97067.31
2022-09-09T22:51:11.148Z,97072.78
2022-09-09T22:53:40.746Z,97067.50
2022-09-09T22:56:12.528Z,97067.25
2022-09-09T22:58:39.761Z,97067.13
2022-09-09T23:01:15.509Z,97068.81
2022-09-09T23:03:42.399Z,97075.91
2022-09-09T23:06:11.565Z,97084.03
2022-09-09T23:08:38.934Z,97083.72
2022-09-09T23:11:10.591Z,97084.09
2022-09-09T23:13:41.262Z,97097.16
2022-09-09T23:16:16.444Z,97094.41
2022-09-09T23:18:43.746Z,97093.13
2022-09-09T23:21:12.095Z,97101.59
2022-09-09T23:23:40.643Z,97091.63
2022-09-09T23:26:09.425Z,97089.00
2022-09-09T23:28:38.420Z,97078.69
2022-09-09T23:31:10.603Z,97078.91
2022-09-09T23:33:37.436Z,97068.16
2022-09-09T23:36:08.372Z,97060.69
2022-09-09T23:38:37.938Z,97055.28
2022-09-09T23:41:06.429Z,97056.50
2022-09-09T23:43:39.352Z,97053.47
2022-09-09T23:46:09.010Z,97056.97
2022-09-09T23:48:38.649Z,97047.22
2022-09-09T23:51:06.636Z,97053.72
2022-09-09T23:53:33.357Z,97048.94
2022-09-09T23:55:59.810Z,97040.38
2022-09-09T23:58:26.409Z,97050.97
